sensor_id;sensor_type;location;lat;lon;timestamp;P1;P2;P0
57798;PMS7003;43626;53.866;30.298;2023-10-08T00:01:15;0.3;0;0
57798;PMS7003;43626;53.866;30.298;2023-10-08T00:05:38;0.6;0.2;0
57798;PMS7003;43626;53.866;30.298;2023-10-08T00:11:06;0.8;0;0
57798;PMS7003;43626;53.866;30.298;2023-10-08T00:16:14;0.8;0.2;0
57798;PMS7003;43626;53.866;30.298;2023-10-08T00:21:06;1.4;0.2;0
57798;PMS7003;43626;53.866;30.298;2023-10-08T00:26:02;0.2;0.2;0
57798;PMS7003;43626;53.866;30.298;2023-10-08T00:30:40;4.8;3.8;1.8
57798;PMS7003;43626;53.866;30.298;2023-10-08T00:35:28;3;1.8;1
57798;PMS7003;43626;53.866;30.298;2023-10-08T00:41:14;5;3.6;2.6
57798;PMS7003;43626;53.866;30.298;2023-10-08T00:45:54;1.6;1;0.2
57798;PMS7003;43626;53.866;30.298;2023-10-08T00:50:40;0.4;0.4;0
57798;PMS7003;43626;53.866;30.298;2023-10-08T00:55:36;6.2;4.6;1.8
57798;PMS7003;43626;53.866;30.298;2023-10-08T01:01:06;11;8;3.8
57798;PMS7003;43626;53.866;30.298;2023-10-08T01:06:14;11.2;8;3.6
57798;PMS7003;43626;53.866;30.298;2023-10-08T01:10:46;16.6;10.8;4.6
57798;PMS7003;43626;53.866;30.298;2023-10-08T01:16:03;10.6;8.8;4.2
57798;PMS7003;43626;53.866;30.298;2023-10-08T01:20:40;10.2;6.4;2.8
57798;PMS7003;43626;53.866;30.298;2023-10-08T01:25:54;7;5.4;2.6
57798;PMS7003;43626;53.866;30.298;2023-10-08T01:31:14;2.4;2.2;0.8
57798;PMS7003;43626;53.866;30.298;2023-10-08T01:36:00;2.4;1.4;0.2
57798;PMS7003;43626;53.866;30.298;2023-10-08T01:40:41;2.2;2.2;0.8
57798;PMS7003;43626;53.866;30.298;2023-10-08T01:45:35;4.8;3.6;1.8
57798;PMS7003;43626;53.866;30.298;2023-10-08T01:51:06;3;1.8;0.8
57798;PMS7003;43626;53.866;30.298;2023-10-08T01:56:14;1.8;1.4;0.6
57798;PMS7003;43626;53.866;30.298;2023-10-08T02:00:45;0.5;0.5;0.3
57798;PMS7003;43626;53.866;30.298;2023-10-08T02:06:02;2;1.4;0.2
57798;PMS7003;43626;53.866;30.298;2023-10-08T02:10:28;4;3.4;2
57798;PMS7003;43626;53.866;30.298;2023-10-08T02:15:54;3.2;2.4;1.2
57798;PMS7003;43626;53.866;30.298;2023-10-08T02:21:14;2.6;1.8;0.8
57798;PMS7003;43626;53.866;30.298;2023-10-08T02:25:28;4.8;3.8;1.8
57798;PMS7003;43626;53.866;30.298;2023-10-08T02:30:34;4.4;3.6;1.6
57798;PMS7003;43626;53.866;30.298;2023-10-08T02:35:28;4;3.2;2
57798;PMS7003;43626;53.866;30.298;2023-10-08T02:41:06;4.4;2.2;1.2
57798;PMS7003;43626;53.866;30.298;2023-10-08T02:46:14;3.6;3.2;1.6
57798;PMS7003;43626;53.866;30.298;2023-10-08T02:51:06;2.6;2.4;1
57798;PMS7003;43626;53.866;30.298;2023-10-08T02:56:03;2.4;2;1
57798;PMS7003;43626;53.866;30.298;2023-10-08T03:00:28;4.3;2;1
57798;PMS7003;43626;53.866;30.298;2023-10-08T03:05:28;4;2.6;0.8
57798;PMS7003;43626;53.866;30.298;2023-10-08T03:11:08;2.8;1.4;0.4
57798;PMS7003;43626;53.866;30.298;2023-10-08T03:16:06;1.8;1.2;0.2
57798;PMS7003;43626;53.866;30.298;2023-10-08T03:20:28;2.2;1.2;0.2
57798;PMS7003;43626;53.866;30.298;2023-10-08T03:25:28;1.2;1;0.2
57798;PMS7003;43626;53.866;30.298;2023-10-08T03:31:06;1.4;1.2;0.4
57798;PMS7003;43626;53.866;30.298;2023-10-08T03:36:12;2.4;1.6;0.4
57798;PMS7003;43626;53.866;30.298;2023-10-08T03:41:04;2.4;1.4;0.6
57798;PMS7003;43626;53.866;30.298;2023-10-08T03:45:56;1.4;1.2;0.2
57798;PMS7003;43626;53.866;30.298;2023-10-08T03:50:40;1.6;1.2;0.4
57798;PMS7003;43626;53.866;30.298;2023-10-08T03:55:48;2.4;1.4;1
57798;PMS7003;43626;53.866;30.298;2023-10-08T04:01:14;2.5;1.5;0
57798;PMS7003;43626;53.866;30.298;2023-10-08T04:06:04;1;0.6;0
57798;PMS7003;43626;53.866;30.298;2023-10-08T04:10:34;1;0;0
57798;PMS7003;43626;53.866;30.298;2023-10-08T04:15:46;2;1.4;0.2
57798;PMS7003;43626;53.866;30.298;2023-10-08T04:20:56;12;6.8;2.4
57798;PMS7003;43626;53.866;30.298;2023-10-08T04:26:17;8.2;3.8;1.4
57798;PMS7003;43626;53.866;30.298;2023-10-08T04:31:08;8.4;4.8;2
57798;PMS7003;43626;53.866;30.298;2023-10-08T04:35:37;9.2;7;2.6
57798;PMS7003;43626;53.866;30.298;2023-10-08T04:40:34;4.4;3.2;1.4
57798;PMS7003;43626;53.866;30.298;2023-10-08T04:46:08;4;2.6;1.2
57798;PMS7003;43626;53.866;30.298;2023-10-08T04:51:16;4.2;2.8;1.2
57798;PMS7003;43626;53.866;30.298;2023-10-08T04:55:28;2.6;2;0.8
57798;PMS7003;43626;53.866;30.298;2023-10-08T05:00:28;2;1.8;0.2
57798;PMS7003;43626;53.866;30.298;2023-10-08T05:05:39;5.3;2.5;1.3
57798;PMS7003;43626;53.866;30.298;2023-10-08T05:11:06;2.6;2.2;1.2
57798;PMS7003;43626;53.866;30.298;2023-10-08T05:16:14;4.4;2.8;0.8
57798;PMS7003;43626;53.866;30.298;2023-10-08T05:21:09;3;1.2;0.2
57798;PMS7003;43626;53.866;30.298;2023-10-08T05:26:02;1.4;0.6;0.2
57798;PMS7003;43626;53.866;30.298;2023-10-08T05:30:29;1.2;1;0
57798;PMS7003;43626;53.866;30.298;2023-10-08T05:35:55;1.8;1;0.4
57798;PMS7003;43626;53.866;30.298;2023-10-08T05:41:17;1.6;0.8;0.2
57798;PMS7003;43626;53.866;30.298;2023-10-08T05:45:54;1.2;0.6;0.4
57798;PMS7003;43626;53.866;30.298;2023-10-08T05:51:17;0.2;0.2;0
57798;PMS7003;43626;53.866;30.298;2023-10-08T05:55:46;0.6;0.6;0
57798;PMS7003;43626;53.866;30.298;2023-10-08T06:01:06;1.6;1.4;0.4
57798;PMS7003;43626;53.866;30.298;2023-10-08T06:06:17;1.5;1;0.3
57798;PMS7003;43626;53.866;30.298;2023-10-08T06:11:17;4;3.4;1.2
57798;PMS7003;43626;53.866;30.298;2023-10-08T06:16:03;0.6;0.6;0
57798;PMS7003;43626;53.866;30.298;2023-10-08T06:21:15;0.6;0.2;0
57798;PMS7003;43626;53.866;30.298;2023-10-08T06:26:09;1.2;0.4;0
57798;PMS7003;43626;53.866;30.298;2023-10-08T06:31:03;0.6;0.2;0
57798;PMS7003;43626;53.866;30.298;2023-10-08T06:35:27;0;0;0
57798;PMS7003;43626;53.866;30.298;2023-10-08T06:40:31;0.8;0.4;0
57798;PMS7003;43626;53.866;30.298;2023-10-08T06:45:39;0.2;0;0
57798;PMS7003;43626;53.866;30.298;2023-10-08T06:50:45;1;0.6;0
57798;PMS7003;43626;53.866;30.298;2023-10-08T06:56:15;0;0;0
57798;PMS7003;43626;53.866;30.298;2023-10-08T07:01:15;0.6;0.2;0
57798;PMS7003;43626;53.866;30.298;2023-10-08T07:06:01;0;0;0
57798;PMS7003;43626;53.866;30.298;2023-10-08T07:11:15;0.6;0;0
57798;PMS7003;43626;53.866;30.298;2023-10-08T07:15:55;0.6;0;0
57798;PMS7003;43626;53.866;30.298;2023-10-08T07:20:31;0.4;0.2;0
57798;PMS7003;43626;53.866;30.298;2023-10-08T07:25:33;0.6;0;0
57798;PMS7003;43626;53.866;30.298;2023-10-08T07:30:29;0.6;0;0
57798;PMS7003;43626;53.866;30.298;2023-10-08T07:36:17;0.8;0;0
57798;PMS7003;43626;53.866;30.298;2023-10-08T07:41:15;0;0;0
57798;PMS7003;43626;53.866;30.298;2023-10-08T07:46:15;0.2;0;0
57798;PMS7003;43626;53.866;30.298;2023-10-08T07:51:17;0;0;0
57798;PMS7003;43626;53.866;30.298;2023-10-08T07:56:03;0.8;0;0
57798;PMS7003;43626;53.866;30.298;2023-10-08T08:01:17;0.4;0.2;0
57798;PMS7003;43626;53.866;30.298;2023-10-08T08:05:55;0.5;0.3;0
57798;PMS7003;43626;53.866;30.298;2023-10-08T08:11:03;0;0;0
57798;PMS7003;43626;53.866;30.298;2023-10-08T08:15:39;0.2;0.2;0
57798;PMS7003;43626;53.866;30.298;2023-10-08T08:20:35;0.2;0;0
57798;PMS7003;43626;53.866;30.298;2023-10-08T08:25:29;0;0;0
57798;PMS7003;43626;53.866;30.298;2023-10-08T08:30:29;0.2;0;0
57798;PMS7003;43626;53.866;30.298;2023-10-08T08:36:15;0.8;0;0
57798;PMS7003;43626;53.866;30.298;2023-10-08T08:41:17;0.2;0;0
57798;PMS7003;43626;53.866;30.298;2023-10-08T08:46:01;0;0;0
57798;PMS7003;43626;53.866;30.298;2023-10-08T08:51:05;1.2;0.6;0
57798;PMS7003;43626;53.866;30.298;2023-10-08T08:55:29;0.4;0;0
57798;PMS7003;43626;53.866;30.298;2023-10-08T09:01:03;0.8;0.6;0
57798;PMS7003;43626;53.866;30.298;2023-10-08T09:05:39;0.4;0.2;0
57798;PMS7003;43626;53.866;30.298;2023-10-08T09:10:29;1.2;0.4;0
57798;PMS7003;43626;53.866;30.298;2023-10-08T09:15:29;1.4;0.6;0
57798;PMS7003;43626;53.866;30.298;2023-10-08T09:20:55;0.8;0.4;0
57798;PMS7003;43626;53.866;30.298;2023-10-08T09:26:17;0.6;0.4;0
57798;PMS7003;43626;53.866;30.298;2023-10-08T09:31:15;0.8;0.2;0
57798;PMS7003;43626;53.866;30.298;2023-10-08T09:36:03;0;0;0
57798;PMS7003;43626;53.866;30.298;2023-10-08T09:41:17;0.3;0.3;0
57798;PMS7003;43626;53.866;30.298;2023-10-08T09:45:55;0.2;0.2;0
57798;PMS7003;43626;53.866;30.298;2023-10-08T09:51:11;0.6;0.2;0
57798;PMS7003;43626;53.866;30.298;2023-10-08T09:55:29;0;0;0
57798;PMS7003;43626;53.866;30.298;2023-10-08T10:00:35;0;0;0
57798;PMS7003;43626;53.866;30.298;2023-10-08T10:05:29;0.4;0;0
57798;PMS7003;43626;53.866;30.298;2023-10-08T10:10:47;0.4;0.2;0.2
57798;PMS7003;43626;53.866;30.298;2023-10-08T10:16:17;0.4;0.4;0
57798;PMS7003;43626;53.866;30.298;2023-10-08T10:21:31;2.2;1.6;0.6
57798;PMS7003;43626;53.866;30.298;2023-10-08T10:26:03;2.8;2.2;1.2
57798;PMS7003;43626;53.866;30.298;2023-10-08T10:31:18;1.8;1.4;0.4
57798;PMS7003;43626;53.866;30.298;2023-10-08T10:35:29;0.6;0.4;0
57798;PMS7003;43626;53.866;30.298;2023-10-08T10:41:15;10.8;9.5;6.3
57798;PMS7003;43626;53.866;30.298;2023-10-08T10:45:39;24.8;20.4;11.4
57798;PMS7003;43626;53.866;30.298;2023-10-08T10:50:29;10;8.8;5.8
57798;PMS7003;43626;53.866;30.298;2023-10-08T10:55:55;1.8;1.8;1
57798;PMS7003;43626;53.866;30.298;2023-10-08T11:00:47;0.8;0.4;0
57798;PMS7003;43626;53.866;30.298;2023-10-08T11:06:15;0.4;0;0
57798;PMS7003;43626;53.866;30.298;2023-10-08T11:10:55;3;2.8;1
57798;PMS7003;43626;53.866;30.298;2023-10-08T11:16:17;7.6;6;2.4
57798;PMS7003;43626;53.866;30.298;2023-10-08T11:21:05;8;6.4;3.4
57798;PMS7003;43626;53.866;30.298;2023-10-08T11:25:55;0.4;0.4;0.2
57798;PMS7003;43626;53.866;30.298;2023-10-08T11:31:17;0;0;0
57798;PMS7003;43626;53.866;30.298;2023-10-08T11:35:35;0.4;0;0
57798;PMS7003;43626;53.866;30.298;2023-10-08T11:40:29;0;0;0
57798;PMS7003;43626;53.866;30.298;2023-10-08T11:46:17;0.6;0.4;0.2
57798;PMS7003;43626;53.866;30.298;2023-10-08T11:50:29;9;7.4;4.2
57798;PMS7003;43626;53.866;30.298;2023-10-08T11:55:53;3;2.8;1.8
57798;PMS7003;43626;53.866;30.298;2023-10-08T12:00:43;0;0;0
57798;PMS7003;43626;53.866;30.298;2023-10-08T12:06:17;2.4;1.8;1.2
57798;PMS7003;43626;53.866;30.298;2023-10-08T12:11:17;1;0.8;0.6
57798;PMS7003;43626;53.866;30.298;2023-10-08T12:15:29;0.4;0;0
57798;PMS7003;43626;53.866;30.298;2023-10-08T12:21:17;0.4;0.2;0
57798;PMS7003;43626;53.866;30.298;2023-10-08T12:25:29;1.2;0.8;0
57798;PMS7003;43626;53.866;30.298;2023-10-08T12:30:55;0.8;0.8;0.2
57798;PMS7003;43626;53.866;30.298;2023-10-08T12:35:53;0.4;0;0
57798;PMS7003;43626;53.866;30.298;2023-10-08T12:40:47;0;0;0
57798;PMS7003;43626;53.866;30.298;2023-10-08T12:45:31;0.6;0.2;0
57798;PMS7003;43626;53.866;30.298;2023-10-08T12:50:53;1.2;1.2;0.4
57798;PMS7003;43626;53.866;30.298;2023-10-08T12:56:17;1.4;0.8;0.6
57798;PMS7003;43626;53.866;30.298;2023-10-08T13:01:17;0.6;0.6;0.2
57798;PMS7003;43626;53.866;30.298;2023-10-08T13:05:29;1;0.6;0.2
57798;PMS7003;43626;53.866;30.298;2023-10-08T13:11:15;0.4;0.4;0.2
57798;PMS7003;43626;53.866;30.298;2023-10-08T13:15:29;0.8;0.2;0
57798;PMS7003;43626;53.866;30.298;2023-10-08T13:20:49;0.8;0.2;0
57798;PMS7003;43626;53.866;30.298;2023-10-08T13:25:53;0.2;0;0
57798;PMS7003;43626;53.866;30.298;2023-10-08T13:30:39;0.4;0.2;0
57798;PMS7003;43626;53.866;30.298;2023-10-08T13:35:53;1;0.4;0
57798;PMS7003;43626;53.866;30.298;2023-10-08T13:40:55;4;3.8;1.5
57798;PMS7003;43626;53.866;30.298;2023-10-08T13:46:15;9.6;8;4.8
57798;PMS7003;43626;53.866;30.298;2023-10-08T13:51:17;6.8;6.6;4.4
57798;PMS7003;43626;53.866;30.298;2023-10-08T13:55:56;2.6;2;1
57798;PMS7003;43626;53.866;30.298;2023-10-08T14:01:17;1.2;0.4;0.2
57798;PMS7003;43626;53.866;30.298;2023-10-08T14:05:35;11.6;9.2;4.6
57798;PMS7003;43626;53.866;30.298;2023-10-08T14:10:29;4.8;3.8;1.8
57798;PMS7003;43626;53.866;30.298;2023-10-08T14:15:37;30.6;23.2;12.4
57798;PMS7003;43626;53.866;30.298;2023-10-08T14:20:35;19.2;14.2;8.4
57798;PMS7003;43626;53.866;30.298;2023-10-08T14:25:43;14;11.4;6.4
57798;PMS7003;43626;53.866;30.298;2023-10-08T14:30:37;11.4;10.2;6.4
57798;PMS7003;43626;53.866;30.298;2023-10-08T14:36:17;7.4;6.8;4.6
57798;PMS7003;43626;53.866;30.298;2023-10-08T14:41:17;2;2;1.5
57798;PMS7003;43626;53.866;30.298;2023-10-08T14:45:55;11.8;9.8;6.4
57798;PMS7003;43626;53.866;30.298;2023-10-08T14:51:17;14.8;10.6;6
57798;PMS7003;43626;53.866;30.298;2023-10-08T14:56:09;22.2;16.4;9.2
57798;PMS7003;43626;53.866;30.298;2023-10-08T15:01:17;12.6;9;5.4
57798;PMS7003;43626;53.866;30.298;2023-10-08T15:06:11;14.2;9.6;4.2
57798;PMS7003;43626;53.866;30.298;2023-10-08T15:10:35;9.8;8.2;4.4
57798;PMS7003;43626;53.866;30.298;2023-10-08T15:15:29;19.8;16.6;10.6
57798;PMS7003;43626;53.866;30.298;2023-10-08T15:20:49;5.8;4.4;2.8
57798;PMS7003;43626;53.866;30.298;2023-10-08T15:26:17;4.8;4.4;3
57798;PMS7003;43626;53.866;30.298;2023-10-08T15:31:17;1.8;1.4;0.6
57798;PMS7003;43626;53.866;30.298;2023-10-08T15:36:09;1.4;1.2;0.4
57798;PMS7003;43626;53.866;30.298;2023-10-08T15:40:29;1.6;1;0.6
57798;PMS7003;43626;53.866;30.298;2023-10-08T15:45:29;1;1;0.3
57798;PMS7003;43626;53.866;30.298;2023-10-08T15:50:29;7.6;5.8;3.4
57798;PMS7003;43626;53.866;30.298;2023-10-08T15:56:17;9.6;8;5
57798;PMS7003;43626;53.866;30.298;2023-10-08T16:00:45;10.6;9.6;5.4
57798;PMS7003;43626;53.866;30.298;2023-10-08T16:05:35;1.6;1.6;0.8
57798;PMS7003;43626;53.866;30.298;2023-10-08T16:10:55;0.8;0.6;0
57798;PMS7003;43626;53.866;30.298;2023-10-08T16:15:29;1;0.8;0.4
57798;PMS7003;43626;53.866;30.298;2023-10-08T16:21:17;1.8;1.6;0.6
57798;PMS7003;43626;53.866;30.298;2023-10-08T16:26:07;4.2;3;1.8
57798;PMS7003;43626;53.866;30.298;2023-10-08T16:30:29;3.6;2.6;1.6
57798;PMS7003;43626;53.866;30.298;2023-10-08T16:35:35;2;1.6;0.4
57798;PMS7003;43626;53.866;30.298;2023-10-08T16:40:43;7.4;6;3.4
57798;PMS7003;43626;53.866;30.298;2023-10-08T16:46:15;5.3;3.3;1.3
57798;PMS7003;43626;53.866;30.298;2023-10-08T16:50:45;8;6.4;3.2
57798;PMS7003;43626;53.866;30.298;2023-10-08T16:55:41;14.8;11;5.4
57798;PMS7003;43626;53.866;30.298;2023-10-08T17:00:55;5;4.4;2.2
57798;PMS7003;43626;53.866;30.298;2023-10-08T17:05:35;1;1;0.2
57798;PMS7003;43626;53.866;30.298;2023-10-08T17:11:17;2.8;2.4;1
57798;PMS7003;43626;53.866;30.298;2023-10-08T17:15:57;3;2.4;1.4
57798;PMS7003;43626;53.866;30.298;2023-10-08T17:20:29;1.2;1;0.8
57798;PMS7003;43626;53.866;30.298;2023-10-08T17:25:29;1.6;1.2;0.8
57798;PMS7003;43626;53.866;30.298;2023-10-08T17:30:29;5;4;2.4
57798;PMS7003;43626;53.866;30.298;2023-10-08T17:36:15;4.2;3.4;2
57798;PMS7003;43626;53.866;30.298;2023-10-08T17:40:29;2.2;2.2;1
57798;PMS7003;43626;53.866;30.298;2023-10-08T17:45:29;1.5;1;0.5
57798;PMS7003;43626;53.866;30.298;2023-10-08T17:50:55;2.6;2.6;1.4
57798;PMS7003;43626;53.866;30.298;2023-10-08T17:55:39;4.2;3.2;1.6
57798;PMS7003;43626;53.866;30.298;2023-10-08T18:01:17;2;1.8;1
57798;PMS7003;43626;53.866;30.298;2023-10-08T18:06:15;4.2;2.8;1.2
57798;PMS7003;43626;53.866;30.298;2023-10-08T18:11:17;3.2;1.8;0.6
57798;PMS7003;43626;53.866;30.298;2023-10-08T18:15:35;1.6;1.2;0.8
57798;PMS7003;43626;53.866;30.298;2023-10-08T18:20:29;1.8;1.2;0.4
57798;PMS7003;43626;53.866;30.298;2023-10-08T18:26:17;2.6;1.8;0.8
57798;PMS7003;43626;53.866;30.298;2023-10-08T18:31:09;2;1.4;1
57798;PMS7003;43626;53.866;30.298;2023-10-08T18:35:41;1.2;1.2;0.4
57798;PMS7003;43626;53.866;30.298;2023-10-08T18:40:56;1.2;0.6;0.2
57798;PMS7003;43626;53.866;30.298;2023-10-08T18:46:03;2.5;1.8;0.8
57798;PMS7003;43626;53.866;30.298;2023-10-08T18:51:17;1.2;0.4;0.2
57798;PMS7003;43626;53.866;30.298;2023-10-08T18:56:09;0.6;0.2;0
57798;PMS7003;43626;53.866;30.298;2023-10-08T19:00:29;0.6;0.2;0
57798;PMS7003;43626;53.866;30.298;2023-10-08T19:05:35;0.6;0.2;0
57798;PMS7003;43626;53.866;30.298;2023-10-08T19:10:29;0.8;0.4;0.2
57798;PMS7003;43626;53.866;30.298;2023-10-08T19:16:15;0.8;0.4;0
57798;PMS7003;43626;53.866;30.298;2023-10-08T19:20:45;0.4;0.2;0.2
57798;PMS7003;43626;53.866;30.298;2023-10-08T19:25:45;0.6;0.4;0
57798;PMS7003;43626;53.866;30.298;2023-10-08T19:30:53;0.6;0.2;0
57798;PMS7003;43626;53.866;30.298;2023-10-08T19:35:54;0.2;0;0
57798;PMS7003;43626;53.866;30.298;2023-10-08T19:41:17;0.2;0.2;0
57798;PMS7003;43626;53.866;30.298;2023-10-08T19:46:09;0.3;0;0
57798;PMS7003;43626;53.866;30.298;2023-10-08T19:50:31;1.4;0.2;0
57798;PMS7003;43626;53.866;30.298;2023-10-08T19:55:49;0.2;0.2;0
57798;PMS7003;43626;53.866;30.298;2023-10-08T20:00:29;0.8;0.4;0
57798;PMS7003;43626;53.866;30.298;2023-10-08T20:06:17;2.8;2.2;1
57798;PMS7003;43626;53.866;30.298;2023-10-08T20:10:47;5.6;4.6;2.2
57798;PMS7003;43626;53.866;30.298;2023-10-08T20:15:29;3.8;2.6;1
57798;PMS7003;43626;53.866;30.298;2023-10-08T20:21:17;10.4;8.2;3.4
57798;PMS7003;43626;53.866;30.298;2023-10-08T20:26:10;5;3.4;1.2
57798;PMS7003;43626;53.866;30.298;2023-10-08T20:31:17;4;2.8;1.4
57798;PMS7003;43626;53.866;30.298;2023-10-08T20:36:09;5.8;4.6;2.6
57798;PMS7003;43626;53.866;30.298;2023-10-08T20:40:29;3.6;2.8;1.6
57798;PMS7003;43626;53.866;30.298;2023-10-08T20:45:29;2.2;1.4;1
57798;PMS7003;43626;53.866;30.298;2023-10-08T20:50:39;1.3;1.3;0.3
57798;PMS7003;43626;53.866;30.298;2023-10-08T20:56:15;1.4;1;0.2
57798;PMS7003;43626;53.866;30.298;2023-10-08T21:00:35;0.4;0.4;0
57798;PMS7003;43626;53.866;30.298;2023-10-08T21:05:35;0.8;0.8;0.2
57798;PMS7003;43626;53.866;30.298;2023-10-08T21:10:55;2.4;1.6;0.6
57798;PMS7003;43626;53.866;30.298;2023-10-08T21:16:11;0.6;0.6;0.2
57798;PMS7003;43626;53.866;30.298;2023-10-08T21:21:17;1;1;0.2
57798;PMS7003;43626;53.866;30.298;2023-10-08T21:26:09;1.4;1;0.6
57798;PMS7003;43626;53.866;30.298;2023-10-08T21:30:29;2.6;1.8;1.4
57798;PMS7003;43626;53.866;30.298;2023-10-08T21:35:29;2.6;2.2;1.6
57798;PMS7003;43626;53.866;30.298;2023-10-08T21:41:09;2.2;1.8;0.6
57798;PMS7003;43626;53.866;30.298;2023-10-08T21:46:17;2;1.6;0.8
57798;PMS7003;43626;53.866;30.298;2023-10-08T21:50:29;2;1.3;0.5
57798;PMS7003;43626;53.866;30.298;2023-10-08T21:55:29;1.6;1.4;0.6
57798;PMS7003;43626;53.866;30.298;2023-10-08T22:00:55;2.2;1.8;1
57798;PMS7003;43626;53.866;30.298;2023-10-08T22:06:09;2.2;1.4;0.8
57798;PMS7003;43626;53.866;30.298;2023-10-08T22:11:17;2.2;1.4;1
57798;PMS7003;43626;53.866;30.298;2023-10-08T22:15:37;2;1.8;0.4
57798;PMS7003;43626;53.866;30.298;2023-10-08T22:20:31;2.4;2;1
57798;PMS7003;43626;53.866;30.298;2023-10-08T22:25:35;2.4;1.6;0.8
57798;PMS7003;43626;53.866;30.298;2023-10-08T22:30:47;2;1.2;0.6
57798;PMS7003;43626;53.866;30.298;2023-10-08T22:36:17;1.4;1;0.4
57798;PMS7003;43626;53.866;30.298;2023-10-08T22:40:47;1.8;0.8;0.4
57798;PMS7003;43626;53.866;30.298;2023-10-08T22:45:41;1;0.8;0.4
57798;PMS7003;43626;53.866;30.298;2023-10-08T22:50:55;1.8;1.8;0.8
57798;PMS7003;43626;53.866;30.298;2023-10-08T22:56:09;2.2;1.6;0.8
57798;PMS7003;43626;53.866;30.298;2023-10-08T23:01:18;1.4;1.2;0.4
57798;PMS7003;43626;53.866;30.298;2023-10-08T23:06:09;1.2;1.2;0.6
57798;PMS7003;43626;53.866;30.298;2023-10-08T23:10:35;2;1.6;1
57798;PMS7003;43626;53.866;30.298;2023-10-08T23:15:35;1.6;1.6;0.8
57798;PMS7003;43626;53.866;30.298;2023-10-08T23:20:49;2;1.6;0.6
57798;PMS7003;43626;53.866;30.298;2023-10-08T23:26:13;1.8;1.6;0.6
57798;PMS7003;43626;53.866;30.298;2023-10-08T23:30:29;1.8;1.2;0.6
57798;PMS7003;43626;53.866;30.298;2023-10-08T23:35:29;0.8;0.8;0.4
57798;PMS7003;43626;53.866;30.298;2023-10-08T23:40:55;1.6;1.2;0.8
57798;PMS7003;43626;53.866;30.298;2023-10-08T23:45:55;2.2;1.8;0.6
57798;PMS7003;43626;53.866;30.298;2023-10-08T23:51:15;1.3;1;0.5
57798;PMS7003;43626;53.866;30.298;2023-10-08T23:56:07;1.6;1.6;0.6
